Time;durP1;ratioP1;P1;durP2;ratioP2;P2;SDS_P1;SDS_P2;PMS_P1;PMS_P2;Temp;Humidity;BMP_temperature;BMP_pressure;BME280_temperature;BME280_humidity;BME280_pressure;Samples;Min_cycle;Max_cycle;Signal;HPM_P1;HPM_P2
2023/06/06 00:02:20;;;;;;;6.97;3.80;;;12.70;99.90;;;;;;5032245;28;20461;-81
2023/06/06 00:04:49;;;;;;;5.68;3.25;;;12.60;99.90;;;;;;5032739;28;20037;-81
2023/06/06 00:07:18;;;;;;;6.75;3.60;;;12.60;99.90;;;;;;5049045;28;20520;-81
2023/06/06 00:09:43;;;;;;;7.75;3.38;;;12.60;99.90;;;;;;5049610;28;20047;-80
2023/06/06 00:12:12;;;;;;;7.05;3.92;;;12.60;99.90;;;;;;5048654;28;20029;-80
2023/06/06 00:14:40;;;;;;;7.72;4.00;;;12.60;99.90;;;;;;5032545;28;20029;-81
2023/06/06 00:17:06;;;;;;;11.93;3.80;;;12.50;99.90;;;;;;5049224;28;20561;-81
2023/06/06 00:19:32;;;;;;;6.20;3.90;;;12.50;99.90;;;;;;5049448;28;20566;-81
2023/06/06 00:21:58;;;;;;;5.75;3.65;;;12.40;99.90;;;;;;5048746;28;20029;-81
2023/06/06 00:24:24;;;;;;;6.65;3.65;;;12.40;99.90;;;;;;5016407;28;20053;-81
2023/06/06 00:26:50;;;;;;;6.32;3.55;;;12.30;99.90;;;;;;5048638;28;20041;-81
2023/06/06 00:29:15;;;;;;;6.72;3.92;;;12.30;99.90;;;;;;5032079;28;20576;-81
2023/06/06 00:31:41;;;;;;;9.30;4.18;;;12.30;99.90;;;;;;5047751;28;20492;-82
2023/06/06 00:34:07;;;;;;;7.07;4.13;;;12.30;99.90;;;;;;5031572;28;20052;-81
2023/06/06 00:36:32;;;;;;;7.82;3.65;;;12.30;99.90;;;;;;5031919;28;20041;-81
2023/06/06 00:38:58;;;;;;;6.63;3.78;;;12.20;99.90;;;;;;5031938;28;20034;-81
2023/06/06 00:41:23;;;;;;;8.52;4.28;;;12.20;99.90;;;;;;5031325;28;20051;-81
2023/06/06 00:43:49;;;;;;;6.32;3.80;;;12.20;99.90;;;;;;5031966;28;20040;-81
2023/06/06 00:46:17;;;;;;;6.75;4.45;;;12.10;99.90;;;;;;5048258;28;20171;-81
2023/06/06 00:48:43;;;;;;;9.00;4.75;;;12.10;99.90;;;;;;5031625;28;20443;-81
2023/06/06 00:51:10;;;;;;;9.32;4.35;;;12.10;99.90;;;;;;5047815;28;20029;-81
2023/06/06 00:53:36;;;;;;;7.22;4.22;;;12.10;99.90;;;;;;5031379;28;20079;-81
2023/06/06 00:56:02;;;;;;;8.82;4.10;;;12.10;99.90;;;;;;5048110;28;20042;-81
2023/06/06 00:58:30;;;;;;;6.88;4.47;;;12.00;99.90;;;;;;5031525;28;20072;-81
2023/06/06 01:00:56;;;;;;;9.70;5.05;;;12.00;99.90;;;;;;5031424;28;20125;-81
2023/06/06 01:03:24;;;;;;;10.23;4.20;;;12.00;99.90;;;;;;5031175;28;20041;-81
2023/06/06 01:05:53;;;;;;;7.65;3.97;;;12.00;99.90;;;;;;5048058;28;20080;-80
2023/06/06 01:08:19;;;;;;;8.57;5.03;;;12.00;99.90;;;;;;5030571;28;20087;-81
2023/06/06 01:10:45;;;;;;;8.25;4.25;;;12.00;99.90;;;;;;5047449;28;20048;-81
2023/06/06 01:13:33;;;;;;;6.60;3.92;;;11.90;99.90;;;;;;5031228;28;20037;-81
2023/06/06 01:16:04;;;;;;;8.88;4.55;;;11.90;99.90;;;;;;5047722;28;20038;-81
2023/06/06 01:18:31;;;;;;;8.70;4.70;;;11.90;99.90;;;;;;5031044;28;20524;-81
2023/06/06 01:20:58;;;;;;;7.70;4.80;;;11.90;99.90;;;;;;5030701;28;20037;-81
2023/06/06 01:23:27;;;;;;;10.52;4.72;;;11.80;99.90;;;;;;5027088;28;20045;-81
2023/06/06 01:25:53;;;;;;;8.27;4.35;;;11.80;99.90;;;;;;5031242;28;20061;-80
2023/06/06 01:28:19;;;;;;;10.02;4.93;;;11.70;99.90;;;;;;5047630;28;20042;-81
2023/06/06 01:30:45;;;;;;;8.50;4.68;;;11.70;99.90;;;;;;5030723;28;20485;-80
2023/06/06 01:33:26;;;;;;;8.50;4.72;;;11.60;99.90;;;;;;5030755;28;20049;-80
2023/06/06 01:36:15;;;;;;;9.05;4.55;;;11.60;99.90;;;;;;5031255;28;20101;-80
2023/06/06 01:38:46;;;;;;;8.75;4.20;;;11.50;99.90;;;;;;5020851;28;20124;-80
2023/06/06 01:41:16;;;;;;;9.07;4.55;;;11.40;99.90;;;;;;5047501;28;20045;-80
2023/06/06 01:43:45;;;;;;;7.30;4.18;;;11.40;99.90;;;;;;5024996;28;20033;-80
2023/06/06 01:46:12;;;;;;;7.55;4.63;;;11.30;99.90;;;;;;5047813;28;20546;-81
2023/06/06 01:48:38;;;;;;;9.07;4.53;;;11.20;99.90;;;;;;5048094;28;20042;-81
2023/06/06 01:51:05;;;;;;;9.38;4.38;;;11.10;99.90;;;;;;5030663;28;20037;-81
2023/06/06 01:53:30;;;;;;;11.15;5.30;;;11.00;99.90;;;;;;5008224;28;20037;-81
2023/06/06 01:55:56;;;;;;;9.88;4.88;;;11.00;99.90;;;;;;5048028;28;20124;-81
2023/06/06 01:58:29;;;;;;;9.23;4.72;;;10.90;99.90;;;;;;5030649;28;20064;-81
2023/06/06 02:00:56;;;;;;;9.43;4.65;;;10.80;99.90;;;;;;5030362;28;20068;-81
2023/06/06 02:03:21;;;;;;;10.48;5.00;;;10.70;99.90;;;;;;5047163;28;20521;-81
2023/06/06 02:05:47;;;;;;;8.63;5.30;;;10.80;99.90;;;;;;5047277;28;20041;-81
2023/06/06 02:08:12;;;;;;;6.65;5.10;;;10.60;99.90;;;;;;5030675;28;20435;-81
2023/06/06 02:10:38;;;;;;;7.25;4.50;;;10.50;99.90;;;;;;5030448;28;20496;-81
2023/06/06 02:13:03;;;;;;;9.05;5.35;;;10.50;99.90;;;;;;5022915;28;20049;-81
2023/06/06 02:15:29;;;;;;;7.15;4.57;;;10.40;99.90;;;;;;5030424;28;20408;-82
2023/06/06 02:17:55;;;;;;;9.57;5.32;;;10.30;99.90;;;;;;5030777;28;20045;-81
2023/06/06 02:20:21;;;;;;;9.77;5.00;;;10.30;99.90;;;;;;5050799;28;20046;-82
2023/06/06 02:22:46;;;;;;;12.48;4.80;;;10.20;99.90;;;;;;5050868;28;20421;-81
2023/06/06 02:25:13;;;;;;;8.80;5.22;;;10.20;99.90;;;;;;5050757;28;20130;-81
2023/06/06 02:27:38;;;;;;;11.52;5.60;;;10.10;99.90;;;;;;5050932;28;20111;-81
2023/06/06 02:30:07;;;;;;;8.98;5.40;;;10.20;99.90;;;;;;5033843;28;20065;-82
2023/06/06 02:32:34;;;;;;;10.85;5.38;;;10.10;99.90;;;;;;5033649;28;20047;-82
2023/06/06 02:34:59;;;;;;;10.13;5.25;;;10.10;99.90;;;;;;5034313;28;20043;-81
2023/06/06 02:37:26;;;;;;;9.75;5.20;;;10.20;99.90;;;;;;5050617;28;20045;-81
2023/06/06 02:39:53;;;;;;;9.90;5.88;;;10.20;99.90;;;;;;5050239;28;20037;-81
2023/06/06 02:42:19;;;;;;;9.75;5.95;;;10.10;99.90;;;;;;5033390;28;20037;-82
2023/06/06 02:44:44;;;;;;;9.55;5.20;;;10.20;99.90;;;;;;5033589;28;20045;-82
2023/06/06 02:47:10;;;;;;;11.45;5.55;;;10.10;99.90;;;;;;5033932;28;20038;-82
2023/06/06 02:49:35;;;;;;;8.30;5.43;;;10.00;99.90;;;;;;5050794;28;20059;-82
2023/06/06 02:52:01;;;;;;;10.20;5.32;;;10.00;99.90;;;;;;5049904;28;20041;-82
2023/06/06 02:54:27;;;;;;;9.40;5.57;;;9.90;99.90;;;;;;5033631;28;20029;-81
2023/06/06 02:56:52;;;;;;;11.13;5.80;;;9.90;99.90;;;;;;5034075;28;20589;-81
2023/06/06 02:59:18;;;;;;;9.02;5.80;;;9.90;99.90;;;;;;5033839;28;20498;-81
2023/06/06 03:01:47;;;;;;;9.60;5.45;;;9.90;99.90;;;;;;5050124;28;20417;-81
2023/06/06 03:04:13;;;;;;;8.65;5.82;;;10.00;99.90;;;;;;5050356;28;20401;-81
2023/06/06 03:06:40;;;;;;;9.88;6.40;;;10.10;99.90;;;;;;5050358;28;20041;-81
2023/06/06 03:09:05;;;;;;;10.63;5.72;;;9.90;99.90;;;;;;5033608;28;20040;-81
2023/06/06 03:11:31;;;;;;;10.70;6.25;;;9.90;99.90;;;;;;5049626;28;20034;-82
2023/06/06 03:13:58;;;;;;;11.52;6.32;;;9.90;99.90;;;;;;5033558;28;20037;-82
2023/06/06 03:16:26;;;;;;;9.88;5.78;;;9.90;99.90;;;;;;5033045;28;20053;-82
2023/06/06 03:18:52;;;;;;;10.75;6.68;;;9.90;99.90;;;;;;5033332;28;20042;-81
2023/06/06 03:21:18;;;;;;;10.27;6.18;;;9.90;99.90;;;;;;5049575;28;20104;-81
2023/06/06 03:23:44;;;;;;;12.75;6.28;;;9.90;99.90;;;;;;5049961;28;20439;-82
2023/06/06 03:26:10;;;;;;;13.32;6.95;;;9.90;99.90;;;;;;5033058;28;20116;-82
2023/06/06 03:28:35;;;;;;;7.78;5.70;;;9.90;99.90;;;;;;5033183;28;20038;-82
2023/06/06 03:31:06;;;;;;;13.43;6.15;;;9.90;99.90;;;;;;5031927;28;20034;-82
2023/06/06 03:33:32;;;;;;;9.60;6.15;;;10.00;99.90;;;;;;5025730;28;20176;-82
2023/06/06 03:35:58;;;;;;;8.38;6.07;;;10.20;99.90;;;;;;5032815;28;20046;-82
2023/06/06 03:38:24;;;;;;;12.45;7.47;;;10.30;99.90;;;;;;5033022;28;20060;-82
2023/06/06 03:40:49;;;;;;;10.65;6.45;;;10.40;99.90;;;;;;5049137;28;20041;-81
2023/06/06 03:43:15;;;;;;;11.10;6.18;;;10.50;99.90;;;;;;5032981;28;20033;-81
2023/06/06 03:45:41;;;;;;;10.57;6.18;;;10.60;99.90;;;;;;5049389;28;20061;-82
2023/06/06 03:48:07;;;;;;;9.27;5.72;;;10.60;99.90;;;;;;5049061;28;20386;-82
2023/06/06 03:50:33;;;;;;;11.40;6.15;;;10.60;99.90;;;;;;5048914;28;20048;-82
2023/06/06 03:52:59;;;;;;;11.15;6.90;;;10.50;99.90;;;;;;5032984;28;20413;-82
2023/06/06 03:55:25;;;;;;;11.45;6.93;;;10.50;99.90;;;;;;5032328;28;20037;-82
2023/06/06 03:57:52;;;;;;;9.98;5.63;;;10.50;99.90;;;;;;5032564;28;20485;-82
2023/06/06 04:00:18;;;;;;;11.60;6.43;;;10.60;99.90;;;;;;5049210;28;20526;-82
2023/06/06 04:02:48;;;;;;;12.88;5.57;;;10.60;99.90;;;;;;5026584;28;20042;-82
2023/06/06 04:05:14;;;;;;;9.07;5.80;;;10.70;99.90;;;;;;5031268;28;20513;-82
2023/06/06 04:07:40;;;;;;;11.82;5.95;;;10.80;99.90;;;;;;5033182;28;20393;-82
2023/06/06 04:10:06;;;;;;;10.45;6.32;;;10.80;99.90;;;;;;5031848;28;20511;-82
2023/06/06 04:12:32;;;;;;;8.85;5.70;;;10.90;99.90;;;;;;5048611;28;20033;-82
2023/06/06 04:14:57;;;;;;;9.05;5.35;;;11.00;99.90;;;;;;5032462;28;20038;-82
2023/06/06 04:17:26;;;;;;;10.02;5.53;;;11.00;99.90;;;;;;5032578;28;20456;-82
2023/06/06 04:19:53;;;;;;;10.80;5.70;;;11.10;99.90;;;;;;5049166;28;20049;-81
2023/06/06 04:22:19;;;;;;;10.27;5.30;;;11.20;99.90;;;;;;5048231;28;20405;-82
2023/06/06 04:24:46;;;;;;;10.43;5.43;;;11.30;99.90;;;;;;5032188;28;20145;-82
2023/06/06 04:27:12;;;;;;;10.05;5.07;;;11.40;99.90;;;;;;5031669;28;20034;-82
2023/06/06 04:29:40;;;;;;;11.95;5.78;;;11.50;99.90;;;;;;5031775;28;20044;-82
2023/06/06 04:32:08;;;;;;;13.38;6.25;;;11.60;99.90;;;;;;5044332;28;20037;-82
2023/06/06 04:34:39;;;;;;;9.20;4.88;;;11.60;99.90;;;;;;5032775;28;20036;-81
2023/06/06 04:37:05;;;;;;;9.48;5.22;;;11.70;99.90;;;;;;5032019;28;20033;-81
2023/06/06 04:39:32;;;;;;;11.95;5.43;;;11.80;99.90;;;;;;5048821;28;20112;-81
2023/06/06 04:42:02;;;;;;;8.98;5.18;;;11.90;99.90;;;;;;5031695;28;20034;-81
2023/06/06 04:44:28;;;;;;;11.00;5.18;;;12.00;99.90;;;;;;5032263;28;20053;-81
2023/06/06 04:47:01;;;;;;;10.23;5.45;;;12.10;99.90;;;;;;5048972;28;20049;-81
2023/06/06 04:49:35;;;;;;;8.68;4.88;;;12.20;99.90;;;;;;5031986;28;20076;-81
2023/06/06 04:52:19;;;;;;;8.75;4.97;;;12.20;99.90;;;;;;5031237;28;20083;-81
2023/06/06 04:54:45;;;;;;;9.18;5.20;;;12.30;99.90;;;;;;5048361;28;20041;-81
2023/06/06 04:57:19;;;;;;;9.00;4.93;;;12.40;99.90;;;;;;5048653;28;20049;-81
2023/06/06 04:59:50;;;;;;;9.88;5.55;;;12.50;99.90;;;;;;5032431;28;20037;-81
2023/06/06 05:02:17;;;;;;;10.60;5.13;;;12.60;99.90;;;;;;5047817;28;20540;-81
2023/06/06 05:04:42;;;;;;;9.07;5.32;;;12.70;99.90;;;;;;5048445;28;20061;-81
2023/06/06 05:07:08;;;;;;;10.02;4.97;;;12.70;99.90;;;;;;5032887;28;20033;-79
2023/06/06 05:09:34;;;;;;;11.27;4.90;;;12.80;99.90;;;;;;5047845;28;20044;-82
2023/06/06 05:12:00;;;;;;;9.52;4.28;;;12.80;99.90;;;;;;5048615;28;20117;-81
2023/06/06 05:14:25;;;;;;;9.88;4.97;;;12.90;99.90;;;;;;5031171;28;20033;-81
2023/06/06 05:16:52;;;;;;;12.73;5.00;;;13.00;99.90;;;;;;5032300;28;20037;-81
2023/06/06 05:19:18;;;;;;;10.38;4.78;;;13.10;99.90;;;;;;5048424;28;20037;-81
2023/06/06 05:21:44;;;;;;;11.93;5.00;;;13.10;99.90;;;;;;5032109;28;20041;-82
2023/06/06 05:24:09;;;;;;;8.95;3.97;;;13.30;99.90;;;;;;5031932;28;20033;-81
2023/06/06 05:26:35;;;;;;;9.73;4.65;;;13.40;99.90;;;;;;5031533;28;20120;-81
2023/06/06 05:29:01;;;;;;;10.23;4.70;;;13.40;99.90;;;;;;5032868;28;20091;-82
2023/06/06 05:31:26;;;;;;;10.23;5.03;;;13.50;99.90;;;;;;5030988;28;20033;-80
2023/06/06 05:33:53;;;;;;;11.07;4.85;;;13.60;99.90;;;;;;5031773;28;20076;-81
2023/06/06 05:36:19;;;;;;;10.82;5.10;;;13.70;99.90;;;;;;5032073;28;20080;-79
2023/06/06 05:38:45;;;;;;;10.00;5.30;;;13.70;99.90;;;;;;5032110;28;20080;-80
2023/06/06 05:41:11;;;;;;;10.63;4.95;;;13.70;99.90;;;;;;5032835;28;20046;-80
2023/06/06 05:43:36;;;;;;;9.98;4.88;;;13.80;99.90;;;;;;5033184;28;20128;-81
2023/06/06 05:46:02;;;;;;;10.57;5.15;;;13.90;99.90;;;;;;5048653;28;20037;-80
2023/06/06 05:48:28;;;;;;;15.70;5.25;;;14.00;99.90;;;;;;5033722;28;20515;-81
2023/06/06 05:50:54;;;;;;;10.02;4.93;;;14.00;99.90;;;;;;5048732;28;20461;-81
2023/06/06 05:53:21;;;;;;;10.75;5.53;;;14.00;99.90;;;;;;5032905;28;20060;-80
2023/06/06 05:55:46;;;;;;;14.95;4.95;;;14.10;99.90;;;;;;5036005;28;20409;-81
2023/06/06 05:58:12;;;;;;;10.48;4.70;;;14.20;99.90;;;;;;5035438;28;20049;-81
2023/06/06 06:00:38;;;;;;;9.80;4.95;;;14.20;99.90;;;;;;5035765;28;20052;-81
2023/06/06 06:03:04;;;;;;;9.48;5.00;;;14.30;99.90;;;;;;5051706;28;20049;-81
2023/06/06 06:05:29;;;;;;;10.95;5.15;;;14.40;99.90;;;;;;5026860;28;20496;-79
2023/06/06 06:08:00;;;;;;;8.48;4.43;;;14.50;99.90;;;;;;5035371;28;20033;-80
2023/06/06 06:10:31;;;;;;;9.52;4.60;;;14.50;99.90;;;;;;5036866;28;20128;-81
2023/06/06 06:12:58;;;;;;;11.02;5.18;;;14.60;99.90;;;;;;5036483;28;20033;-80
2023/06/06 06:15:24;;;;;;;9.20;4.90;;;14.70;99.90;;;;;;5035742;28;20041;-80
2023/06/06 06:17:50;;;;;;;10.45;4.60;;;14.70;99.90;;;;;;5035433;28;20030;-79
2023/06/06 06:20:17;;;;;;;9.25;4.55;;;14.80;99.90;;;;;;5051533;28;20048;-80
2023/06/06 06:22:43;;;;;;;11.38;4.97;;;14.90;99.90;;;;;;5050978;28;20048;-80
2023/06/06 06:25:12;;;;;;;12.07;4.30;;;14.80;99.90;;;;;;5036134;28;20431;-79
2023/06/06 06:27:39;;;;;;;9.95;4.32;;;15.00;99.90;;;;;;5036118;28;20386;-81
2023/06/06 06:30:05;;;;;;;10.50;4.13;;;15.00;99.90;;;;;;5039219;28;20037;-80
2023/06/06 06:32:33;;;;;;;9.98;4.43;;;15.10;99.90;;;;;;5030817;28;20041;-80
2023/06/06 06:34:59;;;;;;;6.43;4.20;;;15.10;99.90;;;;;;5034965;28;20042;-81
2023/06/06 06:37:25;;;;;;;8.43;4.28;;;15.20;99.90;;;;;;5037052;28;20508;-80
2023/06/06 06:39:51;;;;;;;7.55;3.70;;;15.30;99.90;;;;;;5051424;28;20041;-80
2023/06/06 06:42:16;;;;;;;9.57;3.60;;;15.50;99.90;;;;;;5033646;28;20107;-80
2023/06/06 06:44:42;;;;;;;8.43;3.95;;;15.60;99.90;;;;;;5050698;28;20037;-81
2023/06/06 06:47:07;;;;;;;9.32;4.22;;;15.70;99.90;;;;;;5052238;28;20075;-81
2023/06/06 06:49:33;;;;;;;8.60;3.72;;;15.50;99.90;;;;;;5035191;28;20045;-80
2023/06/06 06:52:00;;;;;;;8.98;4.03;;;15.60;99.90;;;;;;5033988;28;20048;-79
2023/06/06 06:54:26;;;;;;;7.65;3.75;;;15.70;99.90;;;;;;5034377;28;20052;-81
2023/06/06 06:56:53;;;;;;;8.10;4.03;;;15.70;99.90;;;;;;5033391;28;20033;-80
2023/06/06 06:59:20;;;;;;;8.38;4.10;;;15.90;99.90;;;;;;5050819;28;20037;-80
2023/06/06 07:01:49;;;;;;;7.93;3.50;;;16.00;99.90;;;;;;5035972;28;20044;-80
2023/06/06 07:04:17;;;;;;;7.68;3.40;;;16.20;99.90;;;;;;5045538;28;20045;-80
2023/06/06 07:06:44;;;;;;;8.80;3.80;;;16.30;99.90;;;;;;5049815;28;20839;-80
2023/06/06 07:09:11;;;;;;;6.53;3.17;;;16.50;99.90;;;;;;5031588;28;20358;-81
2023/06/06 07:11:36;;;;;;;8.32;3.58;;;16.50;99.90;;;;;;5045128;28;20033;-78
2023/06/06 07:14:02;;;;;;;8.90;3.75;;;16.60;99.90;;;;;;5035423;28;20511;-78
2023/06/06 07:16:27;;;;;;;9.38;4.00;;;16.70;99.90;;;;;;5033076;28;20508;-79
2023/06/06 07:18:53;;;;;;;8.63;3.70;;;16.80;99.90;;;;;;5028891;28;20045;-79
2023/06/06 07:21:22;;;;;;;8.15;3.50;;;17.00;99.90;;;;;;5030744;28;20095;-80
2023/06/06 07:23:48;;;;;;;9.55;3.70;;;17.10;99.90;;;;;;5047586;28;20041;-80
2023/06/06 07:26:16;;;;;;;7.57;3.78;;;17.10;99.90;;;;;;5032708;28;20037;-79
2023/06/06 07:28:43;;;;;;;8.68;3.22;;;17.30;99.90;;;;;;5031501;28;20041;-79
2023/06/06 07:31:08;;;;;;;9.23;4.20;;;17.40;99.90;;;;;;5031854;28;20149;-80
2023/06/06 07:33:34;;;;;;;9.07;3.42;;;17.30;99.90;;;;;;5048586;28;20065;-80
2023/06/06 07:35:59;;;;;;;11.00;3.63;;;17.40;99.90;;;;;;5033459;28;20052;-80
2023/06/06 07:38:26;;;;;;;7.80;3.60;;;17.30;99.90;;;;;;5033542;28;20408;-80
2023/06/06 07:40:51;;;;;;;8.80;3.72;;;17.30;99.90;;;;;;5049819;28;20041;-81
2023/06/06 07:43:17;;;;;;;7.40;3.80;;;17.30;99.90;;;;;;5032971;28;20045;-78
2023/06/06 07:45:42;;;;;;;8.82;3.50;;;17.20;99.90;;;;;;5033786;28;20500;-79
2023/06/06 07:48:08;;;;;;;8.13;3.17;;;17.10;99.90;;;;;;5049138;28;20516;-80
2023/06/06 07:50:33;;;;;;;8.57;3.88;;;17.20;99.90;;;;;;5048391;28;20555;-78
2023/06/06 07:52:59;;;;;;;8.82;3.75;;;17.30;99.90;;;;;;5031508;28;20048;-79
2023/06/06 07:55:24;;;;;;;6.45;3.90;;;17.50;99.90;;;;;;5032496;28;20132;-80
2023/06/06 07:57:51;;;;;;;6.35;3.85;;;17.60;99.90;;;;;;5050806;28;20041;-79
2023/06/06 08:00:16;;;;;;;5.68;3.58;;;17.80;99.90;;;;;;5033946;28;20053;-79
2023/06/06 08:02:43;;;;;;;13.88;4.20;;;17.90;99.90;;;;;;5050789;28;20077;-80
2023/06/06 08:05:09;;;;;;;9.30;4.00;;;17.90;99.90;;;;;;5034423;28;20037;-80
2023/06/06 08:07:36;;;;;;;8.82;3.67;;;18.00;99.90;;;;;;5033309;28;20044;-80
2023/06/06 08:10:02;;;;;;;7.57;3.72;;;18.20;99.90;;;;;;5033629;28;20485;-81
2023/06/06 08:12:28;;;;;;;5.43;3.40;;;18.30;99.90;;;;;;5032788;28;20061;-81
2023/06/06 08:14:54;;;;;;;13.07;4.20;;;18.30;99.90;;;;;;5035102;28;20101;-80
2023/06/06 08:17:19;;;;;;;8.43;3.70;;;18.30;99.90;;;;;;5051529;28;20041;-80
2023/06/06 08:19:45;;;;;;;7.90;4.18;;;18.30;99.90;;;;;;5050555;28;20386;-80
2023/06/06 08:22:10;;;;;;;11.27;4.30;;;18.10;99.90;;;;;;5032480;28;20413;-81
2023/06/06 08:24:37;;;;;;;6.82;4.00;;;18.20;99.90;;;;;;5031548;28;20038;-80
2023/06/06 08:27:03;;;;;;;8.07;4.13;;;17.90;99.90;;;;;;5032903;28;20116;-80
2023/06/06 08:29:28;;;;;;;5.32;3.42;;;18.10;99.90;;;;;;5031768;28;20070;-80
2023/06/06 08:31:54;;;;;;;7.45;3.97;;;18.00;99.90;;;;;;5031409;28;20063;-80
2023/06/06 08:34:20;;;;;;;9.13;3.63;;;18.20;99.90;;;;;;5030165;28;20120;-79
2023/06/06 08:36:47;;;;;;;7.35;3.90;;;17.80;99.90;;;;;;5030070;28;20079;-81
2023/06/06 08:39:13;;;;;;;7.88;3.95;;;18.00;99.90;;;;;;5030752;28;20106;-80
2023/06/06 08:41:53;;;;;;;6.72;4.15;;;17.90;99.90;;;;;;5048211;28;20052;-80
2023/06/06 08:44:23;;;;;;;12.38;4.65;;;18.10;99.90;;;;;;5031241;28;20107;-79
2023/06/06 08:46:51;;;;;;;7.10;4.05;;;18.20;99.90;;;;;;5033194;28;20374;-79
2023/06/06 08:49:18;;;;;;;10.25;4.10;;;18.20;99.90;;;;;;5047803;28;20048;-79
2023/06/06 08:51:45;;;;;;;8.20;4.03;;;18.40;99.90;;;;;;5030431;28;20044;-80
2023/06/06 08:54:10;;;;;;;6.90;4.13;;;18.40;99.90;;;;;;5048154;28;20034;-80
2023/06/06 08:56:37;;;;;;;10.90;4.90;;;18.60;99.90;;;;;;5049900;28;20099;-79
2023/06/06 08:59:03;;;;;;;9.35;4.88;;;18.30;99.90;;;;;;5032155;28;20481;-79
2023/06/06 09:01:30;;;;;;;9.77;4.60;;;18.30;99.90;;;;;;5032013;28;20040;-79
2023/06/06 09:03:56;;;;;;;8.60;4.40;;;18.30;99.90;;;;;;5033322;28;20034;-79
2023/06/06 09:06:21;;;;;;;7.55;4.22;;;18.20;99.90;;;;;;5031213;28;20045;-78
2023/06/06 09:08:48;;;;;;;8.00;4.55;;;18.10;99.90;;;;;;5033198;28;20029;-78
2023/06/06 09:11:16;;;;;;;8.70;4.60;;;18.30;99.90;;;;;;5030701;28;20042;-79
2023/06/06 09:13:42;;;;;;;10.73;4.65;;;18.40;99.90;;;;;;5046826;28;20041;-78
2023/06/06 09:16:08;;;;;;;8.05;4.28;;;18.50;99.90;;;;;;5031473;28;20410;-80
2023/06/06 09:18:35;;;;;;;5.72;3.85;;;18.40;99.90;;;;;;5031902;28;20042;-78
2023/06/06 09:21:01;;;;;;;7.20;4.15;;;18.20;99.90;;;;;;5047913;28;20045;-79
2023/06/06 09:23:30;;;;;;;7.78;4.20;;;18.30;99.90;;;;;;5033665;28;20045;-78
2023/06/06 09:25:56;;;;;;;9.13;4.50;;;18.20;99.90;;;;;;5048196;28;20057;-79
2023/06/06 09:28:38;;;;;;;7.63;4.38;;;18.30;99.90;;;;;;5028884;28;20060;-80
2023/06/06 09:31:26;;;;;;;6.55;4.22;;;18.50;99.90;;;;;;5031759;28;20030;-79
2023/06/06 09:33:53;;;;;;;8.10;4.03;;;18.40;99.90;;;;;;5032265;28;20038;-78
2023/06/06 09:36:27;;;;;;;8.57;4.53;;;18.50;99.90;;;;;;5031693;28;20044;-79
2023/06/06 09:39:13;;;;;;;9.07;4.60;;;18.60;99.90;;;;;;5049116;28;20048;-78
2023/06/06 09:41:40;;;;;;;11.18;4.82;;;18.70;99.90;;;;;;5009233;28;20556;-78
2023/06/06 09:44:25;;;;;;;8.60;5.55;;;18.70;99.90;;;;;;5031602;28;20060;-80
2023/06/06 09:46:59;;;;;;;11.75;4.85;;;18.80;99.90;;;;;;5033415;28;20567;-80
2023/06/06 09:49:25;;;;;;;8.25;5.03;;;18.50;99.90;;;;;;5032418;28;20037;-79
2023/06/06 09:51:54;;;;;;;10.93;5.90;;;18.50;99.90;;;;;;5048033;28;20457;-79
2023/06/06 09:54:22;;;;;;;12.10;5.60;;;18.40;99.90;;;;;;5045690;28;20069;-79
2023/06/06 09:56:49;;;;;;;11.60;5.95;;;18.30;99.90;;;;;;5014614;28;20152;-79
2023/06/06 09:59:16;;;;;;;11.48;5.70;;;18.20;99.90;;;;;;5048392;28;20137;-78
2023/06/06 10:01:44;;;;;;;9.13;5.55;;;18.20;99.90;;;;;;5048443;28;20087;-79
2023/06/06 10:04:10;;;;;;;11.57;5.60;;;18.20;99.90;;;;;;5030896;28;20440;-77
2023/06/06 10:06:38;;;;;;;8.25;5.68;;;18.10;99.90;;;;;;5048331;28;20059;-78
2023/06/06 10:09:05;;;;;;;10.88;5.50;;;18.20;99.90;;;;;;5044981;28;20038;-78
2023/06/06 10:11:33;;;;;;;9.90;5.72;;;18.30;99.90;;;;;;5026577;28;20037;-79
2023/06/06 10:13:59;;;;;;;10.85;5.68;;;18.40;99.90;;;;;;5029091;28;20056;-78
2023/06/06 10:16:27;;;;;;;8.05;4.85;;;18.30;99.90;;;;;;5030498;28;20184;-79
2023/06/06 10:18:53;;;;;;;8.82;5.88;;;18.50;99.90;;;;;;5033185;28;20044;-79
2023/06/06 10:21:20;;;;;;;10.18;5.38;;;18.30;99.90;;;;;;5031586;28;20057;-79
2023/06/06 10:23:45;;;;;;;11.38;5.53;;;18.40;99.90;;;;;;5031029;28;20386;-78
2023/06/06 10:26:32;;;;;;;8.80;5.10;;;18.60;99.90;;;;;;5032129;28;20111;-77
2023/06/06 10:29:13;;;;;;;11.57;5.65;;;18.70;99.90;;;;;;5042687;28;20033;-78
2023/06/06 10:31:56;;;;;;;14.07;5.70;;;19.00;99.90;;;;;;5013527;28;20037;-78
2023/06/06 10:34:28;;;;;;;13.60;5.75;;;19.20;99.90;;;;;;5030804;28;20045;-79
2023/06/06 10:36:56;;;;;;;9.88;5.15;;;19.40;99.90;;;;;;5030263;28;20054;-80
2023/06/06 10:39:23;;;;;;;10.07;4.68;;;19.60;99.90;;;;;;5028347;28;20040;-79
2023/06/06 10:42:06;;;;;;;11.32;5.30;;;19.40;99.90;;;;;;5028536;28;20034;-79
2023/06/06 10:44:37;;;;;;;10.48;5.22;;;19.30;99.90;;;;;;5048889;28;20073;-77
2023/06/06 10:47:21;;;;;;;10.55;4.85;;;19.30;99.90;;;;;;5051062;28;20044;-78
2023/06/06 10:52:52;;;;;;;13.77;5.57;;;19.70;99.90;;;;;;5020892;28;20092;-78
2023/06/06 10:55:20;;;;;;;9.25;5.53;;;19.90;99.90;;;;;;5025361;28;20033;-78
2023/06/06 10:58:03;;;;;;;11.30;5.97;;;19.70;99.90;;;;;;5033430;28;20377;-78
2023/06/06 11:00:32;;;;;;;8.75;5.40;;;19.80;99.90;;;;;;5033272;28;20523;-78
2023/06/06 11:03:13;;;;;;;12.10;5.78;;;20.00;99.90;;;;;;5049944;28;20068;-78
2023/06/06 11:06:01;;;;;;;10.55;5.00;;;20.10;99.90;;;;;;5034219;28;20061;-78
2023/06/06 11:08:44;;;;;;;7.90;5.00;;;20.10;99.90;;;;;;5033613;28;20060;-79
2023/06/06 11:11:15;;;;;;;8.40;5.07;;;19.90;99.90;;;;;;5050878;28;20570;-78
2023/06/06 11:14:03;;;;;;;9.65;5.10;;;19.80;99.90;;;;;;5033640;28;20041;-77
2023/06/06 11:16:40;;;;;;;8.73;5.05;;;19.60;99.90;;;;;;5033034;28;20048;-78
2023/06/06 11:19:08;;;;;;;12.40;5.32;;;19.80;99.90;;;;;;5033547;28;20041;-78
2023/06/06 11:21:36;;;;;;;10.70;5.30;;;19.70;99.90;;;;;;5049752;28;20037;-79
2023/06/06 11:24:02;;;;;;;10.15;5.25;;;19.90;99.90;;;;;;5034289;28;20029;-77
2023/06/06 11:26:28;;;;;;;8.98;5.32;;;20.10;99.90;;;;;;5032482;28;20120;-77
2023/06/06 11:28:55;;;;;;;8.82;5.05;;;20.40;99.90;;;;;;5048975;28;20125;-78
2023/06/06 11:31:24;;;;;;;9.48;5.20;;;20.70;99.90;;;;;;5047942;28;20045;-78
2023/06/06 11:33:50;;;;;;;9.77;5.18;;;20.90;99.90;;;;;;5032783;28;20052;-78
2023/06/06 11:36:16;;;;;;;9.52;4.93;;;21.10;99.90;;;;;;5049008;28;20038;-78
2023/06/06 11:38:42;;;;;;;10.75;5.20;;;21.20;99.90;;;;;;5049007;28;20232;-78
2023/06/06 11:41:08;;;;;;;9.75;5.13;;;21.40;99.90;;;;;;5049372;28;20046;-78
2023/06/06 11:43:34;;;;;;;8.10;4.88;;;21.00;99.90;;;;;;5033235;28;20335;-78
2023/06/06 11:46:05;;;;;;;9.20;4.50;;;21.00;99.90;;;;;;5031823;28;20103;-78
2023/06/06 11:48:31;;;;;;;10.13;5.05;;;21.20;99.90;;;;;;5031992;28;20039;-77
2023/06/06 11:50:56;;;;;;;10.63;5.60;;;21.40;99.90;;;;;;5031382;28;20420;-76
2023/06/06 11:53:29;;;;;;;8.07;4.72;;;21.10;99.90;;;;;;5048534;28;20128;-78
2023/06/06 11:55:54;;;;;;;9.68;5.13;;;21.00;99.90;;;;;;5027765;28;20512;-77
2023/06/06 11:58:20;;;;;;;10.48;5.00;;;21.10;99.90;;;;;;5048425;28;20056;-77
2023/06/06 12:00:47;;;;;;;7.45;4.53;;;21.00;99.90;;;;;;5048503;28;20033;-77
2023/06/06 12:03:16;;;;;;;11.02;4.60;;;21.40;99.90;;;;;;5031973;28;20049;-78
2023/06/06 12:05:42;;;;;;;11.00;5.57;;;21.60;99.90;;;;;;5048278;28;20033;-77
2023/06/06 12:08:09;;;;;;;11.07;5.35;;;21.80;99.90;;;;;;5031622;28;20068;-77
2023/06/06 12:10:34;;;;;;;12.77;5.15;;;21.30;99.90;;;;;;5031621;28;20033;-77
2023/06/06 12:13:00;;;;;;;12.52;5.40;;;21.30;99.90;;;;;;5031455;28;20053;-77
2023/06/06 12:15:48;;;;;;;12.88;5.45;;;21.60;99.90;;;;;;5031359;28;20447;-78
2023/06/06 12:18:13;;;;;;;11.05;5.05;;;21.90;99.90;;;;;;5048438;28;20463;-78
2023/06/06 12:20:39;;;;;;;7.90;5.28;;;21.90;99.90;;;;;;5047813;28;20070;-77
2023/06/06 12:23:04;;;;;;;9.52;4.28;;;22.10;99.90;;;;;;5031802;28;20045;-78
2023/06/06 12:25:30;;;;;;;9.88;5.38;;;21.90;99.90;;;;;;5023343;28;20029;-76
2023/06/06 12:28:08;;;;;;;8.07;4.65;;;21.70;99.90;;;;;;5031157;28;20087;-78
2023/06/06 12:30:33;;;;;;;8.30;4.63;;;21.80;99.90;;;;;;5023618;28;20456;-75
2023/06/06 12:33:02;;;;;;;9.13;5.10;;;21.60;99.90;;;;;;5047232;28;20042;-76
2023/06/06 12:35:29;;;;;;;9.57;4.82;;;21.80;99.90;;;;;;5024244;28;20037;-78
2023/06/06 12:37:55;;;;;;;8.38;4.05;;;21.70;99.90;;;;;;5031737;28;20030;-77
2023/06/06 12:40:33;;;;;;;8.73;4.72;;;21.80;99.90;;;;;;5047540;28;20041;-77
2023/06/06 12:43:04;;;;;;;9.10;4.22;;;21.80;99.90;;;;;;5023655;28;20067;-78
2023/06/06 12:45:35;;;;;;;8.52;4.20;;;21.60;99.90;;;;;;5030642;28;20037;-77
2023/06/06 12:48:01;;;;;;;7.68;3.72;;;22.10;99.90;;;;;;5030574;28;20056;-75
2023/06/06 12:50:26;;;;;;;8.90;4.28;;;22.10;99.90;;;;;;5029939;28;20029;-76